Time;durP1;ratioP1;P1;durP2;ratioP2;P2;SDS_P1;SDS_P2;PMS_P1;PMS_P2;Temp;Humidity;BMP_temperature;BMP_pressure;BME280_temperature;BME280_humidity;BME280_pressure;Samples;Min_cycle;Max_cycle;Signal;HPM_P1;HPM_P2
2023/06/10 00:01:49;;;;;;;10.20;6.47;;;;;;;;;;5034946;28;20222;-58
2023/06/10 00:04:16;;;;;;;9.73;6.22;;;;;;;;;;5033653;28;20302;-58
2023/06/10 00:06:41;;;;;;;8.18;5.82;;;;;;;;;;5035029;28;20218;-58
2023/06/10 00:09:10;;;;;;;9.38;5.70;;;;;;;;;;5034287;28;20211;-58
2023/06/10 00:11:36;;;;;;;7.82;6.10;;;;;;;;;;5033963;28;20204;-58
2023/06/10 00:14:01;;;;;;;9.02;6.15;;;;;;;;;;5033817;28;20285;-59
2023/06/10 00:16:26;;;;;;;7.75;5.72;;;;;;;;;;5034518;28;20307;-58
2023/06/10 00:18:51;;;;;;;9.75;6.43;;;;;;;;;;5034008;28;20274;-58
2023/06/10 00:21:17;;;;;;;8.32;6.22;;;;;;;;;;5034117;28;20559;-58
2023/06/10 00:23:43;;;;;;;8.65;5.75;;;;;;;;;;5032857;28;20741;-58
2023/06/10 00:26:08;;;;;;;8.35;5.60;;;;;;;;;;5033702;28;20220;-58
2023/06/10 00:28:34;;;;;;;8.55;5.57;;;;;;;;;;5034287;28;20218;-58
2023/06/10 00:30:59;;;;;;;9.52;5.80;;;;;;;;;;5033517;28;20302;-58
2023/06/10 00:33:25;;;;;;;8.30;5.75;;;;;;;;;;5033931;28;20294;-58
2023/06/10 00:35:50;;;;;;;11.52;6.00;;;;;;;;;;5033017;28;20725;-58
2023/06/10 00:38:15;;;;;;;8.80;5.60;;;;;;;;;;5032913;28;20593;-58
2023/06/10 00:40:41;;;;;;;11.75;6.10;;;;;;;;;;5034108;28;20289;-58
2023/06/10 00:43:07;;;;;;;8.43;5.63;;;;;;;;;;5033351;28;20208;-58
2023/06/10 00:45:32;;;;;;;8.27;5.80;;;;;;;;;;5033207;28;20701;-58
2023/06/10 00:47:58;;;;;;;9.25;5.60;;;;;;;;;;5033501;28;20208;-58
2023/06/10 00:50:23;;;;;;;7.85;5.70;;;;;;;;;;5033533;28;20208;-58
2023/06/10 00:52:48;;;;;;;14.15;5.40;;;;;;;;;;5041668;28;20584;-58
2023/06/10 00:55:14;;;;;;;9.25;5.47;;;;;;;;;;5050809;28;20207;-59
2023/06/10 00:57:39;;;;;;;10.07;5.97;;;;;;;;;;5033808;28;20223;-58
2023/06/10 01:00:07;;;;;;;11.35;5.45;;;;;;;;;;5032221;28;20266;-58
2023/06/10 01:02:33;;;;;;;10.18;5.45;;;;;;;;;;5032484;28;20699;-59
2023/06/10 01:04:58;;;;;;;7.97;5.32;;;;;;;;;;5033625;28;20226;-58
2023/06/10 01:07:47;;;;;;;9.38;5.70;;;;;;;;;;5031384;28;20207;-59
2023/06/10 01:10:32;;;;;;;12.30;5.43;;;;;;;;;;5022323;28;20295;-58
2023/06/10 01:12:59;;;;;;;8.68;5.15;;;;;;;;;;5032108;28;20203;-58
2023/06/10 01:15:24;;;;;;;9.98;5.60;;;;;;;;;;5032617;28;20216;-58
2023/06/10 01:17:57;;;;;;;7.28;5.53;;;;;;;;;;5033447;28;20294;-58
2023/06/10 01:20:24;;;;;;;10.20;5.45;;;;;;;;;;5032288;28;20287;-58
2023/06/10 01:22:50;;;;;;;8.65;5.13;;;;;;;;;;5033395;28;20659;-58
2023/06/10 01:25:15;;;;;;;12.07;5.57;;;;;;;;;;5032813;28;20239;-58
2023/06/10 01:27:41;;;;;;;7.05;5.40;;;;;;;;;;5031437;28;20574;-58
2023/06/10 01:30:15;;;;;;;7.72;5.20;;;;;;;;;;5021291;28;20641;-58
2023/06/10 01:32:42;;;;;;;6.72;4.95;;;;;;;;;;5003394;28;20834;-58
2023/06/10 01:35:08;;;;;;;17.88;5.97;;;;;;;;;;5010712;28;20335;-59
2023/06/10 01:37:33;;;;;;;10.63;5.85;;;;;;;;;;5003744;28;20327;-58
2023/06/10 01:39:59;;;;;;;9.88;5.57;;;;;;;;;;5011808;28;20278;-58
2023/06/10 01:42:24;;;;;;;10.32;5.45;;;;;;;;;;5001149;28;20621;-58
2023/06/10 01:44:50;;;;;;;11.75;5.35;;;;;;;;;;4995658;28;20221;-58
2023/06/10 01:47:15;;;;;;;9.68;4.97;;;;;;;;;;5000405;28;20668;-58
2023/06/10 01:49:41;;;;;;;10.27;5.40;;;;;;;;;;4996025;28;20697;-58
2023/06/10 01:52:06;;;;;;;10.80;5.07;;;;;;;;;;5003714;28;20260;-58
2023/06/10 01:54:31;;;;;;;8.90;5.50;;;;;;;;;;5003357;28;20664;-58
2023/06/10 01:56:57;;;;;;;11.05;5.53;;;;;;;;;;5003128;28;20228;-58
2023/06/10 01:59:22;;;;;;;9.52;5.20;;;;;;;;;;5002576;28;20220;-58
2023/06/10 02:01:47;;;;;;;11.75;5.60;;;;;;;;;;5003197;28;20212;-58
2023/06/10 02:04:13;;;;;;;11.90;5.40;;;;;;;;;;5001998;28;20584;-58
2023/06/10 02:06:38;;;;;;;9.25;5.63;;;;;;;;;;5015527;28;20216;-58
2023/06/10 02:09:03;;;;;;;9.38;5.40;;;;;;;;;;5013251;28;20208;-58
2023/06/10 02:11:28;;;;;;;10.27;5.45;;;;;;;;;;5014265;28;20215;-58
2023/06/10 02:13:54;;;;;;;11.02;5.70;;;;;;;;;;5021409;28;20296;-58
2023/06/10 02:16:21;;;;;;;10.00;5.95;;;;;;;;;;5003041;28;20625;-58
2023/06/10 02:18:46;;;;;;;12.60;4.82;;;;;;;;;;5002871;28;20762;-58
2023/06/10 02:21:12;;;;;;;8.73;5.38;;;;;;;;;;5021478;28;20204;-58
2023/06/10 02:23:37;;;;;;;10.13;5.47;;;;;;;;;;5008016;28;20251;-59
2023/06/10 02:26:02;;;;;;;9.65;5.70;;;;;;;;;;5002515;28;20231;-58
2023/06/10 02:28:28;;;;;;;11.40;5.47;;;;;;;;;;4998581;28;20750;-58
2023/06/10 02:30:53;;;;;;;8.70;5.20;;;;;;;;;;5000990;28;20690;-58
2023/06/10 02:33:19;;;;;;;11.25;6.07;;;;;;;;;;5020857;28;20228;-58
2023/06/10 02:35:45;;;;;;;9.98;5.70;;;;;;;;;;5029826;28;20227;-58
2023/06/10 02:38:10;;;;;;;9.23;5.82;;;;;;;;;;5026201;28;20240;-59
2023/06/10 02:40:35;;;;;;;9.77;5.68;;;;;;;;;;5022565;28;20212;-58
2023/06/10 02:43:01;;;;;;;11.05;6.05;;;;;;;;;;5030358;28;20587;-58
2023/06/10 02:45:26;;;;;;;10.20;5.68;;;;;;;;;;5029605;28;20212;-58
2023/06/10 02:47:51;;;;;;;9.60;5.30;;;;;;;;;;5033651;28;20231;-58
2023/06/10 02:50:16;;;;;;;11.50;5.97;;;;;;;;;;5035582;28;20242;-58
2023/06/10 02:52:42;;;;;;;9.48;5.78;;;;;;;;;;5043161;28;20213;-58
2023/06/10 02:55:07;;;;;;;12.32;5.90;;;;;;;;;;5037053;28;20335;-59
2023/06/10 02:57:32;;;;;;;12.82;5.88;;;;;;;;;;5055826;28;20223;-58
2023/06/10 02:59:58;;;;;;;10.35;5.90;;;;;;;;;;5053817;28;20217;-58
2023/06/10 03:02:28;;;;;;;15.30;6.07;;;;;;;;;;5055407;28;20215;-58
2023/06/10 03:04:56;;;;;;;11.70;5.88;;;;;;;;;;5055691;28;20215;-58
2023/06/10 03:07:21;;;;;;;8.82;5.88;;;;;;;;;;5043020;28;20215;-58
2023/06/10 03:09:46;;;;;;;9.15;5.88;;;;;;;;;;5035770;28;20219;-58
2023/06/10 03:12:12;;;;;;;9.05;5.90;;;;;;;;;;5035669;28;20211;-58
2023/06/10 03:14:38;;;;;;;9.57;5.75;;;;;;;;;;5035032;28;20558;-58
2023/06/10 03:17:04;;;;;;;10.38;6.03;;;;;;;;;;5031271;28;20246;-58
2023/06/10 03:19:30;;;;;;;10.32;5.95;;;;;;;;;;4999091;28;20216;-58
2023/06/10 03:22:14;;;;;;;10.40;6.45;;;;;;;;;;5002409;28;20277;-58
2023/06/10 03:24:39;;;;;;;11.73;5.88;;;;;;;;;;5024876;28;20258;-58
2023/06/10 03:27:08;;;;;;;10.20;5.63;;;;;;;;;;5012473;28;20621;-58
2023/06/10 03:29:33;;;;;;;9.75;6.00;;;;;;;;;;5025361;28;20227;-58
2023/06/10 03:31:59;;;;;;;11.65;5.85;;;;;;;;;;5025385;28;20237;-58
2023/06/10 03:34:24;;;;;;;12.35;6.13;;;;;;;;;;5021786;28;20211;-58
2023/06/10 03:36:49;;;;;;;12.00;6.13;;;;;;;;;;5004764;28;20224;-59
2023/06/10 03:39:15;;;;;;;8.63;5.78;;;;;;;;;;5003771;28;20248;-58
2023/06/10 03:41:40;;;;;;;11.88;6.18;;;;;;;;;;5000496;28;20840;-58
2023/06/10 03:44:05;;;;;;;11.15;5.68;;;;;;;;;;4998745;28;20295;-58
2023/06/10 03:46:31;;;;;;;13.10;6.07;;;;;;;;;;5005421;28;20262;-58
2023/06/10 03:48:56;;;;;;;10.77;6.07;;;;;;;;;;5005022;28;20238;-58
2023/06/10 03:51:21;;;;;;;11.27;5.78;;;;;;;;;;5004747;28;20227;-58
2023/06/10 03:53:47;;;;;;;12.18;5.70;;;;;;;;;;5009454;28;20553;-58
2023/06/10 03:56:12;;;;;;;9.73;6.00;;;;;;;;;;5004649;28;20340;-58
2023/06/10 03:58:37;;;;;;;9.50;5.75;;;;;;;;;;5005562;28;20706;-57
2023/06/10 04:01:04;;;;;;;11.35;6.55;;;;;;;;;;4998655;28;20220;-58
2023/06/10 04:03:29;;;;;;;13.75;6.28;;;;;;;;;;4995928;28;20208;-58
2023/06/10 04:05:54;;;;;;;11.38;6.30;;;;;;;;;;4997269;28;20498;-58
2023/06/10 04:08:20;;;;;;;11.98;6.50;;;;;;;;;;5003796;28;20303;-58
2023/06/10 04:10:45;;;;;;;13.18;6.00;;;;;;;;;;5004586;28;20212;-58
2023/06/10 04:13:11;;;;;;;10.15;6.38;;;;;;;;;;5004560;28;20213;-58
2023/06/10 04:15:36;;;;;;;15.40;6.35;;;;;;;;;;5004599;28;20224;-58
2023/06/10 04:18:02;;;;;;;13.52;6.10;;;;;;;;;;5004247;28;20279;-59
2023/06/10 04:20:27;;;;;;;10.13;6.20;;;;;;;;;;5009774;28;20216;-58
2023/06/10 04:22:53;;;;;;;13.23;6.22;;;;;;;;;;5000548;28;20228;-58
2023/06/10 04:25:18;;;;;;;10.02;5.82;;;;;;;;;;5015918;28;20687;-58
2023/06/10 04:27:43;;;;;;;10.68;6.47;;;;;;;;;;4996871;28;20213;-60
2023/06/10 04:30:09;;;;;;;10.05;6.25;;;;;;;;;;5000222;28;20578;-59
2023/06/10 04:32:34;;;;;;;16.45;6.57;;;;;;;;;;5004704;28;20242;-58
2023/06/10 04:35:00;;;;;;;12.07;6.43;;;;;;;;;;5004394;28;20434;-58
2023/06/10 04:37:25;;;;;;;11.50;6.20;;;;;;;;;;5003439;28;20220;-58
2023/06/10 04:39:50;;;;;;;12.07;6.65;;;;;;;;;;5005048;28;20683;-58
2023/06/10 04:42:15;;;;;;;12.13;6.78;;;;;;;;;;5023498;28;20302;-58
2023/06/10 04:44:41;;;;;;;11.77;6.57;;;;;;;;;;5021745;28;20354;-57
2023/06/10 04:47:07;;;;;;;14.80;6.43;;;;;;;;;;4997397;28;20212;-57
2023/06/10 04:49:33;;;;;;;11.50;6.15;;;;;;;;;;4996440;28;20205;-57
2023/06/10 04:51:59;;;;;;;11.38;6.13;;;;;;;;;;4997956;28;20541;-58
2023/06/10 04:54:25;;;;;;;12.80;6.07;;;;;;;;;;5003922;28;20678;-58
2023/06/10 04:56:50;;;;;;;12.38;6.38;;;;;;;;;;5004593;28;20224;-58
2023/06/10 04:59:15;;;;;;;9.48;6.30;;;;;;;;;;5003546;28;20772;-58
2023/06/10 05:01:41;;;;;;;12.20;6.50;;;;;;;;;;5003183;28;20440;-58
2023/06/10 05:04:07;;;;;;;10.52;6.57;;;;;;;;;;5002561;28;20228;-57
2023/06/10 05:06:36;;;;;;;12.90;6.28;;;;;;;;;;5017696;28;20216;-58
2023/06/10 05:09:02;;;;;;;14.88;6.90;;;;;;;;;;5016094;28;20505;-58
2023/06/10 05:11:29;;;;;;;10.70;6.10;;;;;;;;;;5014755;28;20230;-58
2023/06/10 05:13:54;;;;;;;10.95;5.95;;;;;;;;;;5015118;28;20212;-57
2023/06/10 05:16:19;;;;;;;9.20;6.13;;;;;;;;;;5004390;28;22941;-58
2023/06/10 05:18:45;;;;;;;11.40;6.40;;;;;;;;;;5004197;28;20220;-58
2023/06/10 05:21:11;;;;;;;11.05;5.90;;;;;;;;;;5002364;28;20213;-58
2023/06/10 05:23:36;;;;;;;11.70;6.40;;;;;;;;;;5003918;28;20216;-58
2023/06/10 05:26:05;;;;;;;13.70;6.32;;;;;;;;;;5018230;28;20207;-58
2023/06/10 05:28:30;;;;;;;10.15;6.55;;;;;;;;;;5020132;28;20216;-58
2023/06/10 05:30:56;;;;;;;14.25;6.43;;;;;;;;;;5020126;28;20208;-58
2023/06/10 05:33:21;;;;;;;12.95;6.40;;;;;;;;;;5021164;28;20231;-58
2023/06/10 05:35:46;;;;;;;9.10;6.32;;;;;;;;;;5021134;28;20208;-58
2023/06/10 05:38:12;;;;;;;10.85;6.00;;;;;;;;;;5019633;28;20679;-58
2023/06/10 05:40:37;;;;;;;11.60;6.05;;;;;;;;;;5022925;28;20207;-58
2023/06/10 05:43:02;;;;;;;13.25;6.63;;;;;;;;;;5022466;28;20215;-59
2023/06/10 05:45:27;;;;;;;13.80;6.95;;;;;;;;;;5021587;28;20220;-58
2023/06/10 05:47:53;;;;;;;10.73;6.13;;;;;;;;;;5029419;28;20551;-58
2023/06/10 05:50:18;;;;;;;8.73;6.15;;;;;;;;;;5032453;28;20239;-58
2023/06/10 05:52:43;;;;;;;8.85;6.32;;;;;;;;;;5040674;28;20636;-58
2023/06/10 05:55:09;;;;;;;10.32;6.78;;;;;;;;;;5051121;28;20607;-57
2023/06/10 05:57:34;;;;;;;20.33;6.22;;;;;;;;;;5032552;28;20593;-57
2023/06/10 06:00:00;;;;;;;12.25;6.53;;;;;;;;;;5032834;28;20287;-57
2023/06/10 06:02:25;;;;;;;10.15;6.25;;;;;;;;;;5031567;28;20216;-57
2023/06/10 06:04:50;;;;;;;10.73;6.40;;;;;;;;;;5032786;28;20319;-58
2023/06/10 06:07:16;;;;;;;10.65;6.53;;;;;;;;;;5032049;28;20231;-58
2023/06/10 06:09:41;;;;;;;9.98;6.20;;;;;;;;;;5032073;28;20314;-58
2023/06/10 06:12:07;;;;;;;9.65;6.25;;;;;;;;;;5032088;28;20207;-58
2023/06/10 06:14:32;;;;;;;10.23;6.53;;;;;;;;;;5032317;28;20208;-58
2023/06/10 06:16:57;;;;;;;10.82;6.30;;;;;;;;;;5031904;28;20555;-58
2023/06/10 06:19:23;;;;;;;10.52;6.43;;;;;;;;;;5032079;28;20299;-58
2023/06/10 06:21:48;;;;;;;12.00;6.75;;;;;;;;;;5031625;28;20262;-58
2023/06/10 06:24:14;;;;;;;9.35;6.20;;;;;;;;;;5030878;28;20582;-59
2023/06/10 06:26:39;;;;;;;9.68;5.90;;;;;;;;;;5029394;28;20212;-58
2023/06/10 06:29:04;;;;;;;13.32;6.10;;;;;;;;;;5030732;28;20583;-58
2023/06/10 06:31:30;;;;;;;11.68;6.95;;;;;;;;;;5011901;28;20303;-58
2023/06/10 06:33:55;;;;;;;13.27;6.20;;;;;;;;;;5017358;28;20208;-58
2023/06/10 06:36:20;;;;;;;12.43;6.43;;;;;;;;;;5016688;28;20626;-58
2023/06/10 06:38:46;;;;;;;12.00;6.65;;;;;;;;;;5032059;28;20686;-58
2023/06/10 06:41:11;;;;;;;10.63;6.15;;;;;;;;;;5031945;28;20207;-58
2023/06/10 06:43:36;;;;;;;10.63;6.50;;;;;;;;;;5031271;28;20226;-58
2023/06/10 06:46:02;;;;;;;10.52;6.80;;;;;;;;;;5031803;28;20313;-58
2023/06/10 06:48:27;;;;;;;10.45;6.80;;;;;;;;;;5032115;28;20210;-58
2023/06/10 06:50:52;;;;;;;14.70;5.97;;;;;;;;;;5031310;28;20216;-58
2023/06/10 06:53:18;;;;;;;10.30;6.80;;;;;;;;;;5044139;28;20222;-57
2023/06/10 06:55:43;;;;;;;13.20;6.38;;;;;;;;;;5046564;28;20207;-58
2023/06/10 06:58:08;;;;;;;10.50;6.28;;;;;;;;;;5030997;28;20215;-58
2023/06/10 07:00:33;;;;;;;12.07;6.18;;;;;;;;;;5032088;28;20223;-58
2023/06/10 07:02:59;;;;;;;10.98;5.93;;;;;;;;;;5031983;28;20728;-58
2023/06/10 07:05:27;;;;;;;11.13;6.22;;;;;;;;;;5031013;28;20254;-58
2023/06/10 07:07:54;;;;;;;10.07;5.60;;;;;;;;;;5031983;28;20734;-58
2023/06/10 07:10:21;;;;;;;9.75;5.78;;;;;;;;;;5031466;28;20207;-59
2023/06/10 07:12:47;;;;;;;14.50;6.45;;;;;;;;;;5031135;28;20212;-58
2023/06/10 07:15:12;;;;;;;10.25;5.82;;;;;;;;;;5031375;28;20204;-58
2023/06/10 07:17:37;;;;;;;9.82;5.82;;;;;;;;;;5032089;28;20606;-58
2023/06/10 07:20:03;;;;;;;12.55;5.82;;;;;;;;;;5030759;28;20226;-58
2023/06/10 07:22:28;;;;;;;9.52;5.50;;;;;;;;;;5031710;28;20659;-58
2023/06/10 07:24:55;;;;;;;11.88;5.78;;;;;;;;;;5031685;28;20208;-58
2023/06/10 07:27:20;;;;;;;14.57;5.70;;;;;;;;;;5030611;28;20425;-58
2023/06/10 07:29:45;;;;;;;10.75;5.95;;;;;;;;;;5031809;28;20679;-58
2023/06/10 07:32:11;;;;;;;10.35;5.55;;;;;;;;;;5031570;28;20212;-58
2023/06/10 07:34:36;;;;;;;9.93;5.85;;;;;;;;;;5033340;28;20215;-58
2023/06/10 07:37:01;;;;;;;10.60;5.30;;;;;;;;;;5034844;28;20686;-58
2023/06/10 07:39:27;;;;;;;11.15;6.18;;;;;;;;;;5035198;28;20211;-59
2023/06/10 07:41:53;;;;;;;10.45;5.70;;;;;;;;;;5034552;28;20208;-59
2023/06/10 07:44:19;;;;;;;8.77;5.03;;;;;;;;;;5024736;28;20270;-58
2023/06/10 07:46:45;;;;;;;11.48;4.85;;;;;;;;;;5021376;28;20208;-58
2023/06/10 07:49:10;;;;;;;9.25;5.60;;;;;;;;;;5029130;28;20210;-58
2023/06/10 07:51:36;;;;;;;8.23;4.65;;;;;;;;;;5035374;28;20265;-59
2023/06/10 07:54:01;;;;;;;7.88;5.20;;;;;;;;;;5052058;28;20218;-59
2023/06/10 07:56:27;;;;;;;10.35;5.88;;;;;;;;;;5043656;28;20231;-58
2023/06/10 07:58:52;;;;;;;13.40;5.63;;;;;;;;;;5035013;28;20251;-58
2023/06/10 08:01:17;;;;;;;10.25;5.22;;;;;;;;;;5033991;28;20744;-58
2023/06/10 08:03:43;;;;;;;11.27;5.70;;;;;;;;;;5034964;28;20239;-58
2023/06/10 08:06:11;;;;;;;14.52;5.82;;;;;;;;;;5034511;28;20210;-58
2023/06/10 08:08:41;;;;;;;9.60;5.40;;;;;;;;;;5034019;28;20203;-58
2023/06/10 08:11:06;;;;;;;10.02;5.25;;;;;;;;;;5034280;28;20215;-58
2023/06/10 08:13:31;;;;;;;15.80;5.22;;;;;;;;;;5033430;28;20708;-58
2023/06/10 08:15:57;;;;;;;9.82;5.13;;;;;;;;;;5033587;28;20225;-60
2023/06/10 08:18:22;;;;;;;8.93;5.07;;;;;;;;;;5032668;28;20222;-59
2023/06/10 08:20:47;;;;;;;7.97;5.05;;;;;;;;;;5024628;28;20296;-59
2023/06/10 08:23:13;;;;;;;7.70;4.80;;;;;;;;;;5022176;28;20299;-58
2023/06/10 08:25:39;;;;;;;8.20;5.07;;;;;;;;;;5019747;28;20208;-58
2023/06/10 08:28:04;;;;;;;13.70;5.18;;;;;;;;;;5016829;28;20210;-58
2023/06/10 08:30:30;;;;;;;13.88;5.43;;;;;;;;;;5022449;28;20371;-58
2023/06/10 08:32:55;;;;;;;8.35;5.10;;;;;;;;;;5013635;28;20258;-58
2023/06/10 08:35:20;;;;;;;9.20;5.07;;;;;;;;;;5013212;28;20252;-58
2023/06/10 08:37:46;;;;;;;9.38;4.75;;;;;;;;;;5025193;28;20585;-58
2023/06/10 08:40:12;;;;;;;9.82;4.63;;;;;;;;;;5026691;28;20354;-58
2023/06/10 08:42:38;;;;;;;11.73;5.05;;;;;;;;;;5005902;28;20298;-58
2023/06/10 08:45:03;;;;;;;9.00;4.90;;;;;;;;;;5014304;28;20725;-58
2023/06/10 08:47:31;;;;;;;7.28;4.70;;;;;;;;;;5042090;28;20207;-58
2023/06/10 08:50:01;;;;;;;8.20;5.03;;;;;;;;;;5042182;28;20747;-58
2023/06/10 08:52:26;;;;;;;9.98;5.30;;;;;;;;;;5031300;28;20212;-58
2023/06/10 08:54:56;;;;;;;9.90;5.30;;;;;;;;;;5021782;28;20581;-58
2023/06/10 08:57:22;;;;;;;10.73;4.78;;;;;;;;;;5036948;28;20227;-58
2023/06/10 08:59:47;;;;;;;7.93;4.47;;;;;;;;;;5032980;28;20200;-58
2023/06/10 09:02:13;;;;;;;8.65;4.40;;;;;;;;;;5015750;28;20215;-59
2023/06/10 09:04:38;;;;;;;12.23;4.85;;;;;;;;;;5020682;28;20231;-60
2023/06/10 09:07:04;;;;;;;15.73;4.30;;;;;;;;;;5019251;28;20216;-59
2023/06/10 09:09:32;;;;;;;8.77;4.45;;;;;;;;;;5001916;28;20628;-58
2023/06/10 09:11:58;;;;;;;10.13;4.80;;;;;;;;;;5005979;28;20203;-58
2023/06/10 09:14:23;;;;;;;9.82;4.30;;;;;;;;;;5037418;28;20578;-58
2023/06/10 09:16:49;;;;;;;17.70;4.60;;;;;;;;;;5029225;28;20229;-59
2023/06/10 09:19:15;;;;;;;12.02;4.70;;;;;;;;;;5012759;28;20255;-59
2023/06/10 09:21:40;;;;;;;8.98;4.78;;;;;;;;;;5013847;28;20710;-58
2023/06/10 09:24:06;;;;;;;10.45;4.65;;;;;;;;;;5012872;28;20224;-58
2023/06/10 09:26:31;;;;;;;11.40;4.70;;;;;;;;;;5030344;28;20619;-59
2023/06/10 09:29:03;;;;;;;10.90;4.78;;;;;;;;;;5053310;28;20249;-58
2023/06/10 09:31:29;;;;;;;7.32;4.20;;;;;;;;;;5052893;28;20685;-58
2023/06/10 09:33:54;;;;;;;10.13;4.72;;;;;;;;;;5046985;28;20207;-58
2023/06/10 09:36:23;;;;;;;6.18;4.07;;;;;;;;;;5032690;28;20227;-58
2023/06/10 09:38:49;;;;;;;9.93;4.43;;;;;;;;;;5032833;28;20565;-58
2023/06/10 09:41:15;;;;;;;8.65;4.38;;;;;;;;;;5032486;28;20299;-58
2023/06/10 09:43:41;;;;;;;9.27;4.40;;;;;;;;;;5034869;28;20294;-58
2023/06/10 09:46:06;;;;;;;7.75;4.50;;;;;;;;;;5030614;28;20219;-59
2023/06/10 09:48:35;;;;;;;8.20;4.28;;;;;;;;;;5029608;28;20588;-59
2023/06/10 09:51:00;;;;;;;8.38;4.85;;;;;;;;;;5031494;28;20219;-59
2023/06/10 09:53:26;;;;;;;7.40;3.80;;;;;;;;;;5030604;28;20212;-58
2023/06/10 09:55:51;;;;;;;9.95;4.32;;;;;;;;;;5037263;28;20280;-59
2023/06/10 09:58:17;;;;;;;7.30;4.25;;;;;;;;;;5052531;28;20226;-59
2023/06/10 10:00:42;;;;;;;7.80;3.95;;;;;;;;;;5051790;28;20203;-59
2023/06/10 10:03:07;;;;;;;10.57;4.25;;;;;;;;;;5052265;28;20207;-59
2023/06/10 10:05:32;;;;;;;8.40;4.53;;;;;;;;;;5052461;28;20654;-59
2023/06/10 10:07:58;;;;;;;8.68;3.90;;;;;;;;;;5047897;28;20203;-58
2023/06/10 10:10:23;;;;;;;12.18;4.47;;;;;;;;;;5032356;28;20261;-59
2023/06/10 10:12:50;;;;;;;8.43;4.38;;;;;;;;;;5032507;28;20208;-59
2023/06/10 10:15:16;;;;;;;8.65;4.03;;;;;;;;;;5031118;28;20212;-59
2023/06/10 10:17:59;;;;;;;6.93;4.43;;;;;;;;;;5032421;28;20220;-59
2023/06/10 10:20:26;;;;;;;7.28;3.95;;;;;;;;;;5032117;28;20211;-59
2023/06/10 10:22:53;;;;;;;9.55;4.05;;;;;;;;;;5031493;28;20299;-59
2023/06/10 10:25:23;;;;;;;5.78;3.75;;;;;;;;;;5030814;28;20223;-59
2023/06/10 10:27:50;;;;;;;6.65;3.60;;;;;;;;;;5032544;28;20568;-59
2023/06/10 10:30:16;;;;;;;9.60;4.18;;;;;;;;;;5031091;28;20208;-59
2023/06/10 10:32:44;;;;;;;16.52;4.40;;;;;;;;;;5032466;28;20265;-58
2023/06/10 10:35:14;;;;;;;6.75;4.05;;;;;;;;;;5032109;28;20211;-59
2023/06/10 10:37:40;;;;;;;8.68;4.20;;;;;;;;;;5030079;28;20223;-59
2023/06/10 10:40:05;;;;;;;7.40;4.47;;;;;;;;;;5031788;28;20334;-59
2023/06/10 10:42:31;;;;;;;6.32;3.83;;;;;;;;;;5030063;28;20215;-59
2023/06/10 10:44:56;;;;;;;8.48;4.00;;;;;;;;;;5032263;28;20212;-58
2023/06/10 10:47:21;;;;;;;10.55;4.05;;;;;;;;;;5030482;28;20208;-58
2023/06/10 10:49:47;;;;;;;9.20;4.15;;;;;;;;;;5031469;28;20334;-59
2023/06/10 10:52:12;;;;;;;6.95;3.58;;;;;;;;;;5030220;28;20228;-59
2023/06/10 10:54:39;;;;;;;6.93;3.78;;;;;;;;;;5032350;28;20546;-59
2023/06/10 10:57:33;;;;;;;9.93;3.60;;;;;;;;;;5045478;28;20246;-59
2023/06/10 11:00:04;;;;;;;10.27;4.15;;;;;;;;;;5034735;28;20202;-59
2023/06/10 11:02:32;;;;;;;6.85;3.55;;;;;;;;;;5051680;28;20235;-59
2023/06/10 11:04:58;;;;;;;7.60;3.72;;;;;;;;;;5051264;28;20215;-58
2023/06/10 11:07:24;;;;;;;7.53;4.10;;;;;;;;;;5051240;28;20539;-59
2023/06/10 11:10:00;;;;;;;7.70;3.72;;;;;;;;;;5034835;28;20212;-58
2023/06/10 11:12:25;;;;;;;6.35;3.63;;;;;;;;;;5034553;28;20207;-59
2023/06/10 11:14:55;;;;;;;8.07;3.95;;;;;;;;;;5035806;28;20208;-59
2023/06/10 11:17:20;;;;;;;8.98;3.92;;;;;;;;;;5035315;28;20231;-59
2023/06/10 11:19:46;;;;;;;7.28;4.18;;;;;;;;;;5035157;28;20260;-58
2023/06/10 11:22:15;;;;;;;8.85;4.40;;;;;;;;;;5035077;28;20265;-59
2023/06/10 11:24:41;;;;;;;7.68;4.00;;;;;;;;;;5035139;28;20204;-59
2023/06/10 11:27:16;;;;;;;7.97;4.00;;;;;;;;;;5034639;28;20223;-59
2023/06/10 11:29:58;;;;;;;10.70;4.20;;;;;;;;;;5035855;28;20211;-59
2023/06/10 11:32:24;;;;;;;7.75;4.25;;;;;;;;;;5034186;28;20281;-59
2023/06/10 11:34:52;;;;;;;5.82;3.70;;;;;;;;;;5035473;28;20208;-59
2023/06/10 11:37:18;;;;;;;7.10;3.67;;;;;;;;;;5034652;28;20629;-58
2023/06/10 11:39:43;;;;;;;11.98;4.15;;;;;;;;;;5034649;28;20705;-59
2023/06/10 11:42:08;;;;;;;7.82;3.80;;;;;;;;;;5033442;28;20212;-59
2023/06/10 11:44:37;;;;;;;10.05;4.40;;;;;;;;;;5035521;28;20219;-59
2023/06/10 11:47:02;;;;;;;6.22;3.95;;;;;;;;;;5034072;28;20207;-59
2023/06/10 11:49:28;;;;;;;7.88;4.07;;;;;;;;;;5035195;28;20265;-59
2023/06/10 11:51:53;;;;;;;8.27;4.15;;;;;;;;;;5035413;28;20207;-59
2023/06/10 11:54:18;;;;;;;7.47;4.30;;;;;;;;;;5033948;28;20222;-59
2023/06/10 11:56:44;;;;;;;9.02;3.75;;;;;;;;;;5048337;28;20273;-59
2023/06/10 11:59:09;;;;;;;11.85;4.35;;;;;;;;;;5054455;28;20238;-59
2023/06/10 12:01:36;;;;;;;6.43;3.75;;;;;;;;;;5054402;28;20682;-59
2023/06/10 12:04:04;;;;;;;7.00;4.10;;;;;;;;;;5054113;28;20294;-59
2023/06/10 12:06:48;;;;;;;8.38;3.88;;;;;;;;;;5054951;28;20211;-59
2023/06/10 12:09:17;;;;;;;6.85;3.45;;;;;;;;;;5039608;28;20222;-59
2023/06/10 12:11:43;;;;;;;12.18;3.80;;;;;;;;;;5035005;28;20200;-58
2023/06/10 12:14:09;;;;;;;7.15;3.88;;;;;;;;;;5033161;28;20258;-59
2023/06/10 12:16:34;;;;;;;7.22;4.05;;;;;;;;;;5034809;28;20219;-59
2023/06/10 12:19:03;;;;;;;8.10;4.20;;;;;;;;;;5034247;28;20551;-58
2023/06/10 12:21:28;;;;;;;7.55;4.15;;;;;;;;;;5032351;28;20674;-59
2023/06/10 12:24:22;;;;;;;6.22;3.78;;;;;;;;;;5034587;28;20216;-58
2023/06/10 12:26:48;;;;;;;9.55;4.30;;;;;;;;;;5013261;28;20223;-58
2023/06/10 12:29:18;;;;;;;8.07;3.80;;;;;;;;;;5033225;28;20207;-59
2023/06/10 12:31:53;;;;;;;9.70;4.25;;;;;;;;;;5034529;28;20227;-58
2023/06/10 12:34:18;;;;;;;7.50;4.20;;;;;;;;;;5033666;28;20286;-59
2023/06/10 12:36:50;;;;;;;8.88;4.13;;;;;;;;;;5033971;28;20310;-59
2023/06/10 12:39:15;;;;;;;7.95;4.50;;;;;;;;;;5033837;28;20287;-59
2023/06/10 12:41:40;;;;;;;9.38;4.10;;;;;;;;;;5034384;28;20318;-58
2023/06/10 12:44:06;;;;;;;17.05;4.68;;;;;;;;;;5033013;28;20254;-59
2023/06/10 12:46:37;;;;;;;5.63;4.30;;;;;;;;;;5034430;28;20251;-59
2023/06/10 12:49:02;;;;;;;7.03;3.67;;;;;;;;;;5033134;28;20574;-59
2023/06/10 12:51:27;;;;;;;7.28;4.10;;;;;;;;;;5033817;28;20207;-59
2023/06/10 12:53:53;;;;;;;7.05;4.43;;;;;;;;;;5033864;28;20235;-59
2023/06/10 12:56:18;;;;;;;7.22;4.20;;;;;;;;;;5042592;28;20235;-59
2023/06/10 12:58:43;;;;;;;5.93;3.95;;;;;;;;;;5053533;28;20217;-59
2023/06/10 13:01:09;;;;;;;6.93;4.20;;;;;;;;;;5053397;28;20296;-59
2023/06/10 13:03:34;;;;;;;6.90;4.57;;;;;;;;;;5053153;28;20214;-59
2023/06/10 13:06:00;;;;;;;6.93;4.35;;;;;;;;;;5053713;28;20252;-59
2023/06/10 13:08:27;;;;;;;7.45;4.30;;;;;;;;;;5046055;28;20227;-59
2023/06/10 13:10:53;;;;;;;9.27;4.60;;;;;;;;;;5033125;28;20571;-59
2023/06/10 13:13:18;;;;;;;11.45;4.57;;;;;;;;;;5033341;28;20223;-59
2023/06/10 13:15:43;;;;;;;7.60;4.60;;;;;;;;;;5033371;28;20572;-59
2023/06/10 13:18:09;;;;;;;9.88;3.92;;;;;;;;;;5032342;28;20219;-59
2023/06/10 13:20:34;;;;;;;9.07;4.50;;;;;;;;;;5033159;28;20266;-59
2023/06/10 13:22:59;;;;;;;7.43;4.75;;;;;;;;;;5033757;28;20258;-59
2023/06/10 13:25:25;;;;;;;6.47;4.00;;;;;;;;;;5032187;28;20636;-59
2023/06/10 13:27:50;;;;;;;9.05;4.53;;;;;;;;;;5033506;28;20222;-59
2023/06/10 13:30:15;;;;;;;7.68;4.80;;;;;;;;;;5032762;28;20266;-59
2023/06/10 13:32:40;;;;;;;6.75;4.20;;;;;;;;;;5025358;28;20216;-59
2023/06/10 13:35:07;;;;;;;7.78;4.00;;;;;;;;;;5004375;28;20629;-59
2023/06/10 13:37:33;;;;;;;8.27;3.95;;;;;;;;;;5011926;28;20616;-59
2023/06/10 13:39:58;;;;;;;7.80;4.15;;;;;;;;;;5000160;28;20232;-59
2023/06/10 13:42:26;;;;;;;6.47;4.22;;;;;;;;;;5014849;28;20307;-59
2023/06/10 13:44:51;;;;;;;8.52;4.22;;;;;;;;;;5025727;28;20207;-59
2023/06/10 13:47:17;;;;;;;8.88;4.50;;;;;;;;;;5012191;28;20724;-59
2023/06/10 13:49:42;;;;;;;11.05;4.75;;;;;;;;;;5006522;28;20223;-59
2023/06/10 13:52:07;;;;;;;8.88;4.78;;;;;;;;;;5026209;28;20204;-59
2023/06/10 13:54:33;;;;;;;8.25;4.13;;;;;;;;;;5006515;28;20318;-59
2023/06/10 13:57:00;;;;;;;7.07;4.22;;;;;;;;;;5001597;28;20341;-59
2023/06/10 13:59:25;;;;;;;7.07;4.25;;;;;;;;;;5016759;28;20215;-59
2023/06/10 14:01:51;;;;;;;9.32;4.55;;;;;;;;;;5006428;28;20246;-59
2023/06/10 14:04:16;;;;;;;6.40;4.30;;;;;;;;;;5004061;28;20674;-59
2023/06/10 14:06:41;;;;;;;9.90;4.72;;;;;;;;;;5006664;28;20220;-59
2023/06/10 14:09:07;;;;;;;7.43;4.13;;;;;;;;;;5013559;28;20613;-60
2023/06/10 14:11:32;;;;;;;9.18;4.88;;;;;;;;;;5007066;28;20219;-59
2023/06/10 14:13:58;;;;;;;7.78;4.32;;;;;;;;;;5025021;28;20212;-60
2023/06/10 14:16:24;;;;;;;9.48;5.18;;;;;;;;;;5007075;28;20224;-58
2023/06/10 14:18:50;;;;;;;8.68;4.50;;;;;;;;;;5022504;28;20224;-59
2023/06/10 14:21:16;;;;;;;8.68;4.47;;;;;;;;;;5016917;28;20210;-59
2023/06/10 14:23:43;;;;;;;7.07;4.82;;;;;;;;;;5018669;28;20211;-59
2023/06/10 14:26:08;;;;;;;19.83;4.70;;;;;;;;;;5020994;28;20788;-59
2023/06/10 14:28:33;;;;;;;9.93;4.90;;;;;;;;;;5025345;28;20299;-59
2023/06/10 14:30:58;;;;;;;8.32;4.05;;;;;;;;;;5025761;28;20674;-59
2023/06/10 14:33:24;;;;;;;9.57;4.38;;;;;;;;;;5025395;28;20211;-59